Time;durP1;ratioP1;P1;durP2;ratioP2;P2;SDS_P1;SDS_P2;PMS_P1;PMS_P2;Temp;Humidity;BMP_temperature;BMP_pressure;BME280_temperature;BME280_humidity;BME280_pressure;Samples;Min_cycle;Max_cycle;Signal;HPM_P1;HPM_P2
2023/11/15 00:00:22;;;;;;;16.43;3.43;;;;;;;9.01;100.00;99448.78;1444217;89;21376;-85
2023/11/15 00:02:48;;;;;;;7.60;3.03;;;;;;;9.02;100.00;99446.95;1444000;89;21519;-89
2023/11/15 00:05:14;;;;;;;9.90;4.37;;;;;;;8.99;100.00;99448.10;1443406;89;22051;-86
2023/11/15 00:07:41;;;;;;;8.63;3.03;;;;;;;8.99;100.00;99449.92;1454423;89;21537;-88
2023/11/15 00:10:08;;;;;;;6.50;3.07;;;;;;;8.99;100.00;99454.70;1460660;89;21361;-86
2023/11/15 00:12:34;;;;;;;8.27;3.03;;;;;;;8.97;100.00;99456.66;1457647;89;21485;-84
2023/11/15 00:15:01;;;;;;;12.47;4.07;;;;;;;8.94;100.00;99463.58;1457404;89;21504;-87
2023/11/15 00:17:30;;;;;;;5.40;3.13;;;;;;;8.95;100.00;99467.08;1461455;89;21345;-80
2023/11/15 00:19:56;;;;;;;6.00;2.80;;;;;;;8.95;100.00;99471.03;1456911;89;21486;-88
2023/11/15 00:22:25;;;;;;;7.63;2.80;;;;;;;8.95;100.00;99475.81;1442220;89;21509;-85
2023/11/15 00:24:50;;;;;;;4.73;2.40;;;;;;;8.93;100.00;99489.66;1456725;89;21500;-85
2023/11/15 00:27:17;;;;;;;6.80;3.07;;;;;;;8.94;100.00;99489.97;1457922;89;21567;-84
2023/11/15 00:29:43;;;;;;;9.77;2.80;;;;;;;8.93;100.00;99494.93;1457503;89;21397;-84
2023/11/15 00:32:10;;;;;;;5.33;2.53;;;;;;;8.92;100.00;99494.61;1450830;89;22232;-83
2023/11/15 00:34:36;;;;;;;6.77;2.90;;;;;;;8.94;100.00;99502.34;1456385;89;21485;-84
2023/11/15 00:37:02;;;;;;;5.40;2.23;;;;;;;8.94;100.00;99502.34;1459112;89;21383;-83
2023/11/15 00:39:30;;;;;;;6.63;3.03;;;;;;;8.93;100.00;99504.16;1451563;89;22004;-84
2023/11/15 00:41:57;;;;;;;6.83;3.40;;;;;;;8.93;100.00;99498.89;1458930;89;21495;-84
2023/11/15 00:44:23;;;;;;;8.43;3.10;;;;;;;8.92;100.00;99497.72;1459115;89;22277;-83
2023/11/15 00:46:49;;;;;;;4.40;2.20;;;;;;;8.91;100.00;99494.26;1448090;89;21367;-83
2023/11/15 00:49:15;;;;;;;5.43;2.20;;;;;;;8.89;100.00;99491.44;1446819;89;21434;-84
2023/11/15 00:51:42;;;;;;;6.60;3.23;;;;;;;8.90;100.00;99501.03;1443993;89;21552;-81
2023/11/15 00:54:08;;;;;;;7.70;3.47;;;;;;;8.88;100.00;99501.17;1466256;88;21294;-81
2023/11/15 00:56:34;;;;;;;5.50;2.93;;;;;;;8.90;100.00;99501.03;1464173;89;21593;-84
2023/11/15 00:59:00;;;;;;;8.77;2.60;;;;;;;8.87;100.00;99486.34;1463346;87;21500;-84
2023/11/15 01:01:27;;;;;;;10.50;3.00;;;;;;;8.87;100.00;99479.74;1458857;89;21460;-84
2023/11/15 01:03:56;;;;;;;5.17;2.57;;;;;;;8.87;100.00;99475.78;1468502;88;21434;-84
2023/11/15 01:06:26;;;;;;;9.17;2.83;;;;;;;8.88;100.00;99476.60;1457497;89;21442;-84
2023/11/15 01:08:54;;;;;;;6.03;2.17;;;;;;;8.87;100.00;99471.83;1461893;88;21641;-83
2023/11/15 01:11:23;;;;;;;7.87;2.60;;;;;;;8.87;100.00;99467.87;1467004;88;21397;-84
2023/11/15 01:13:49;;;;;;;4.37;2.60;;;;;;;8.87;100.00;99463.91;1463625;89;22455;-83
2023/11/15 01:16:17;;;;;;;5.03;2.07;;;;;;;8.86;100.00;99471.50;1467857;89;22394;-81
2023/11/15 01:18:44;;;;;;;7.13;2.07;;;;;;;8.86;100.00;99466.69;1458854;88;21471;-80
2023/11/15 01:21:11;;;;;;;4.87;2.53;;;;;;;8.85;100.00;99472.47;1454962;89;21345;-84
2023/11/15 01:23:38;;;;;;;7.10;3.27;;;;;;;8.87;100.00;99473.64;1457708;89;21375;-84
2023/11/15 01:26:05;;;;;;;6.73;3.57;;;;;;;8.88;100.00;99478.74;1465864;89;22528;-88
2023/11/15 01:28:32;;;;;;;4.87;2.90;;;;;;;8.89;100.00;99474.29;1463905;89;21442;-85
2023/11/15 01:30:58;;;;;;;10.73;4.27;;;;;;;8.89;100.00;99481.73;1461546;88;21442;-86
2023/11/15 01:33:25;;;;;;;7.20;3.40;;;;;;;8.91;100.00;99473.14;1457220;89;21374;-84
2023/11/15 01:35:52;;;;;;;5.77;2.17;;;;;;;8.90;100.00;99483.88;1461421;89;22196;-83
2023/11/15 01:38:18;;;;;;;5.43;3.27;;;;;;;8.90;100.00;99479.92;1456944;89;21448;-87
2023/11/15 01:40:46;;;;;;;6.13;3.20;;;;;;;8.89;100.00;99479.09;1461543;89;21545;-86
2023/11/15 01:43:16;;;;;;;7.73;4.90;;;;;;;8.89;100.00;99481.73;1459962;88;21463;-86
2023/11/15 01:45:41;;;;;;;6.50;3.10;;;;;;;8.89;100.00;99471.18;1445995;89;21559;-85
2023/11/15 01:48:07;;;;;;;5.43;2.77;;;;;;;8.90;100.00;99472.82;1464711;88;21375;-86
2023/11/15 01:50:34;;;;;;;4.03;2.20;;;;;;;8.91;100.00;99469.19;1463547;89;21533;-85
2023/11/15 01:53:01;;;;;;;5.77;3.40;;;;;;;8.89;100.00;99467.69;1466185;88;22411;-85
2023/11/15 01:55:28;;;;;;;3.93;2.33;;;;;;;8.88;100.00;99463.41;1459261;89;21472;-85
2023/11/15 01:57:56;;;;;;;4.20;2.50;;;;;;;8.88;100.00;99455.49;1467957;89;21389;-84
2023/11/15 02:00:23;;;;;;;4.33;2.47;;;;;;;8.90;100.00;99452.21;1456979;89;21582;-85
2023/11/15 02:02:50;;;;;;;4.83;2.80;;;;;;;8.90;100.00;99441.16;1467233;89;22543;-84
2023/11/15 02:05:16;;;;;;;4.57;1.80;;;;;;;8.89;100.00;99436.87;1456679;89;21597;-85
2023/11/15 02:07:45;;;;;;;4.87;2.70;;;;;;;8.88;100.00;99432.56;1457712;89;21330;-83
2023/11/15 02:10:13;;;;;;;5.40;1.93;;;;;;;8.89;100.00;99432.92;1451942;89;21545;-83
2023/11/15 02:12:39;;;;;;;3.43;2.87;;;;;;;8.90;100.00;99426.64;1459184;89;22462;-85
2023/11/15 02:15:08;;;;;;;9.03;3.90;;;;;;;8.91;100.00;99419.55;1463300;89;22350;-84
2023/11/15 02:17:35;;;;;;;5.37;2.77;;;;;;;8.90;100.00;99408.17;1458888;89;21604;-86
2023/11/15 02:20:05;;;;;;;6.03;3.00;;;;;;;8.89;100.00;99415.77;1457711;89;21441;-85
2023/11/15 02:22:30;;;;;;;4.47;2.23;;;;;;;8.87;100.00;99430.92;1460094;89;21456;-85
2023/11/15 02:24:56;;;;;;;2.73;2.07;;;;;;;8.86;100.00;99431.92;1460321;89;21538;-89
2023/11/15 02:27:22;;;;;;;3.00;2.03;;;;;;;8.89;100.00;99434.70;1459319;89;21376;-87
2023/11/15 02:29:48;;;;;;;5.17;2.53;;;;;;;8.89;100.00;99436.87;1458417;88;21412;-87
2023/11/15 02:32:15;;;;;;;3.63;1.80;;;;;;;8.87;100.00;99441.48;1448122;89;21523;-88
2023/11/15 02:34:41;;;;;;;3.23;2.20;;;;;;;8.86;100.00;99437.20;1456870;89;21486;-90
2023/11/15 02:37:09;;;;;;;5.07;2.50;;;;;;;8.86;100.00;99441.62;1444904;89;21478;-88
2023/11/15 02:39:35;;;;;;;5.47;2.50;;;;;;;8.86;100.00;99448.22;1452758;89;21353;-89
2023/11/15 02:42:01;;;;;;;5.37;2.53;;;;;;;8.86;100.00;99450.39;1465751;89;21434;-88
2023/11/15 02:44:27;;;;;;;3.30;2.30;;;;;;;8.86;100.00;99450.39;1461549;89;21523;-88
2023/11/15 02:46:54;;;;;;;3.93;2.47;;;;;;;8.85;100.00;99456.64;1467073;89;21323;-88
2023/11/15 02:49:20;;;;;;;4.33;2.60;;;;;;;8.85;100.00;99460.59;1462030;89;21287;-88
2023/11/15 02:51:49;;;;;;;4.60;2.77;;;;;;;8.84;100.00;99456.81;1443003;89;22406;-84
2023/11/15 02:54:14;;;;;;;8.60;2.80;;;;;;;8.81;100.00;99451.36;1462083;89;21486;-88
2023/11/15 02:56:41;;;;;;;8.33;2.30;;;;;;;8.84;100.00;99441.80;1448940;89;21464;-89
2023/11/15 02:59:08;;;;;;;5.17;2.73;;;;;;;8.85;100.00;99429.43;1457333;89;21531;-87
2023/11/15 03:01:34;;;;;;;5.17;3.03;;;;;;;8.85;100.00;99425.47;1448742;90;22491;-88
2023/11/15 03:04:00;;;;;;;5.13;3.00;;;;;;;8.82;100.00;99421.34;1456193;90;22325;-86
2023/11/15 03:06:26;;;;;;;11.67;3.90;;;;;;;8.81;100.00;99423.66;1455832;90;21495;-85
2023/11/15 03:08:52;;;;;;;6.43;3.20;;;;;;;8.81;100.00;99414.42;1448559;90;21442;-87
2023/11/15 03:11:18;;;;;;;8.97;3.50;;;;;;;8.78;100.00;99420.02;1444906;90;21339;-87
2023/11/15 03:13:45;;;;;;;4.90;3.47;;;;;;;8.78;100.00;99424.80;1450039;90;21412;-87
2023/11/15 03:16:11;;;;;;;6.27;2.90;;;;;;;8.79;100.00;99426.94;1449337;90;22491;-88
2023/11/15 03:18:38;;;;;;;6.40;3.33;;;;;;;8.77;100.00;99433.68;1453558;89;21383;-87
2023/11/15 03:21:07;;;;;;;8.17;3.20;;;;;;;8.76;100.00;99430.72;1461014;90;21442;-88
2023/11/15 03:23:33;;;;;;;5.43;3.30;;;;;;;8.77;100.00;99427.09;1455509;90;21567;-86
2023/11/15 03:26:00;;;;;;;6.43;3.60;;;;;;;8.77;100.00;99427.58;1454339;90;21376;-88
2023/11/15 03:28:26;;;;;;;7.37;3.90;;;;;;;8.78;100.00;99426.62;1445150;90;22524;-84
2023/11/15 03:30:52;;;;;;;11.27;4.20;;;;;;;8.76;100.00;99427.27;1452052;90;21457;-82
2023/11/15 03:33:18;;;;;;;7.73;4.07;;;;;;;8.75;100.00;99426.94;1449982;90;21368;-84
2023/11/15 03:35:44;;;;;;;7.93;2.70;;;;;;;8.75;100.00;99432.22;1455187;90;22396;-85
2023/11/15 03:38:10;;;;;;;6.23;3.67;;;;;;;8.75;100.00;99422.48;1459158;90;21361;-84
2023/11/15 03:40:37;;;;;;;10.07;3.60;;;;;;;8.75;100.00;99426.94;1451788;90;21391;-84
2023/11/15 03:43:03;;;;;;;9.23;3.47;;;;;;;8.76;100.00;99432.04;1452867;90;21426;-85
2023/11/15 03:45:29;;;;;;;9.63;4.60;;;;;;;8.73;100.00;99429.72;1447894;90;21493;-84
2023/11/15 03:47:55;;;;;;;6.00;3.43;;;;;;;8.76;100.00;99424.63;1443951;90;21398;-83
2023/11/15 03:50:21;;;;;;;7.10;3.83;;;;;;;8.77;100.00;99420.98;1451090;89;21383;-85
2023/11/15 03:52:47;;;;;;;8.57;3.43;;;;;;;8.77;100.00;99413.89;1456713;90;21339;-85
2023/11/15 03:55:13;;;;;;;7.67;3.30;;;;;;;8.79;100.00;99407.97;1445962;90;21435;-85
2023/11/15 03:57:40;;;;;;;8.97;4.27;;;;;;;8.80;100.00;99404.84;1447288;90;21391;-85
2023/11/15 04:00:10;;;;;;;5.23;3.43;;;;;;;8.81;100.00;99405.19;1460209;89;21574;-84
2023/11/15 04:02:37;;;;;;;6.33;3.67;;;;;;;8.83;100.00;99399.73;1454291;89;22323;-85
2023/11/15 04:05:05;;;;;;;9.90;4.20;;;;;;;8.83;100.00;99400.55;1446624;90;21434;-84
2023/11/15 04:07:33;;;;;;;7.93;3.70;;;;;;;8.83;100.00;99403.69;1455875;90;21361;-86
2023/11/15 04:09:59;;;;;;;7.00;3.90;;;;;;;8.83;100.00;99407.15;1445447;90;21545;-85
2023/11/15 04:12:26;;;;;;;7.47;3.30;;;;;;;8.85;100.00;99402.55;1450611;90;21338;-85
2023/11/15 04:14:52;;;;;;;6.23;3.60;;;;;;;8.86;100.00;99401.58;1451450;90;22425;-85
2023/11/15 04:17:18;;;;;;;7.73;3.67;;;;;;;8.88;100.00;99394.30;1451087;90;21339;-83
2023/11/15 04:19:45;;;;;;;10.73;3.83;;;;;;;8.88;100.00;99388.20;1455423;90;21556;-82
2023/11/15 04:22:11;;;;;;;6.57;3.43;;;;;;;8.87;100.00;99387.89;1456478;90;21443;-86
2023/11/15 04:24:38;;;;;;;7.97;3.97;;;;;;;8.85;100.00;99382.76;1455541;90;21464;-86
2023/11/15 04:27:05;;;;;;;11.40;5.03;;;;;;;8.88;100.00;99392.16;1456320;90;21361;-86
2023/11/15 04:29:31;;;;;;;7.27;4.97;;;;;;;8.88;100.00;99382.44;1454668;90;21272;-85
2023/11/15 04:31:58;;;;;;;5.60;4.47;;;;;;;8.89;100.00;99373.55;1449577;90;21633;-86
2023/11/15 04:34:24;;;;;;;10.03;4.70;;;;;;;8.89;100.00;99372.70;1450319;89;21471;-86
2023/11/15 04:36:50;;;;;;;7.87;4.80;;;;;;;8.89;100.00;99368.27;1456916;90;22285;-86
2023/11/15 04:39:17;;;;;;;5.67;4.13;;;;;;;8.91;100.00;99365.45;1457366;90;21339;-85
2023/11/15 04:41:43;;;;;;;8.93;5.90;;;;;;;8.93;100.00;99360.84;1453624;90;21552;-84
2023/11/15 04:44:09;;;;;;;9.37;4.73;;;;;;;8.94;100.00;99355.39;1457709;89;22240;-83
2023/11/15 04:46:38;;;;;;;10.27;4.17;;;;;;;8.94;100.00;99356.70;1456844;90;21552;-84
2023/11/15 04:49:07;;;;;;;7.93;4.60;;;;;;;8.93;100.00;99361.66;1458227;90;21376;-84
2023/11/15 04:51:33;;;;;;;8.93;5.07;;;;;;;8.94;100.00;99369.91;1456327;90;21405;-85
2023/11/15 04:53:59;;;;;;;9.43;3.77;;;;;;;8.91;100.00;99365.45;1437058;89;21560;-84
2023/11/15 04:56:26;;;;;;;7.43;4.03;;;;;;;8.92;100.00;99365.30;1448982;90;22211;-85
2023/11/15 04:58:53;;;;;;;6.33;3.90;;;;;;;8.94;100.00;99360.66;1444205;90;21375;-86
2023/11/15 05:01:20;;;;;;;8.40;4.40;;;;;;;8.93;100.00;99352.43;1454681;89;21391;-86
2023/11/15 05:03:47;;;;;;;4.87;3.17;;;;;;;8.95;100.00;99342.55;1458998;90;21353;-84
2023/11/15 05:06:13;;;;;;;6.70;3.93;;;;;;;8.97;100.00;99344.50;1457799;90;21376;-86
2023/11/15 05:08:39;;;;;;;8.00;4.10;;;;;;;8.96;100.00;99338.91;1452191;89;21619;-84
2023/11/15 05:11:05;;;;;;;5.57;3.10;;;;;;;8.97;100.00;99314.16;1455102;89;21478;-85
2023/11/15 05:13:32;;;;;;;6.47;3.33;;;;;;;8.97;100.00;99316.80;1456605;90;21302;-87
2023/11/15 05:15:58;;;;;;;4.87;3.57;;;;;;;8.98;100.00;99330.84;1451054;90;21368;-83
2023/11/15 05:18:25;;;;;;;9.50;3.97;;;;;;;8.99;100.00;99330.66;1439650;90;21562;-85
2023/11/15 05:20:51;;;;;;;4.50;2.73;;;;;;;9.00;100.00;99332.30;1453716;90;22285;-85
2023/11/15 05:23:18;;;;;;;8.07;2.93;;;;;;;9.00;100.00;99337.58;1453141;89;21442;-81
2023/11/15 05:25:45;;;;;;;9.20;3.73;;;;;;;9.01;100.00;99343.20;1449163;90;21382;-84
2023/11/15 05:28:11;;;;;;;6.20;3.13;;;;;;;9.01;100.00;99351.13;1447848;89;21330;-85
2023/11/15 05:30:39;;;;;;;7.40;3.13;;;;;;;9.02;100.00;99347.48;1450736;90;22476;-85
2023/11/15 05:33:06;;;;;;;8.07;4.10;;;;;;;9.04;100.00;99345.52;1454440;90;21287;-85
2023/11/15 05:35:32;;;;;;;5.93;3.03;;;;;;;9.07;100.00;99352.78;1445803;89;22374;-81
2023/11/15 05:37:58;;;;;;;7.73;4.10;;;;;;;9.05;100.00;99351.61;1454150;90;21434;-84
2023/11/15 05:40:24;;;;;;;10.50;3.30;;;;;;;9.09;100.00;99349.46;1447824;89;21435;-84
2023/11/15 05:42:51;;;;;;;9.57;3.60;;;;;;;9.09;100.00;99344.19;1453842;90;21471;-82
2023/11/15 05:45:17;;;;;;;6.27;3.93;;;;;;;9.10;100.00;99344.03;1450419;90;21373;-84
2023/11/15 05:47:44;;;;;;;7.27;3.67;;;;;;;9.09;100.00;99344.19;1453740;90;21461;-86
2023/11/15 05:50:10;;;;;;;7.57;3.70;;;;;;;9.08;100.00;99349.14;1458296;90;22255;-82
2023/11/15 05:52:38;;;;;;;9.43;4.13;;;;;;;9.07;100.00;99360.20;1451497;89;21353;-84
2023/11/15 05:55:10;;;;;;;6.40;3.53;;;;;;;9.08;100.00;99363.66;1460836;89;21537;-84
2023/11/15 05:57:37;;;;;;;8.13;3.87;;;;;;;9.09;100.00;99362.66;1448425;89;22211;-84
2023/11/15 06:00:14;;;;;;;8.77;4.37;;;;;;;9.09;100.00;99363.52;1454085;89;21471;-84
2023/11/15 06:02:33;;;;;;;8.00;5.10;;;;;;;9.07;100.00;99363.34;1454206;90;21441;-85
2023/11/15 06:04:59;;;;;;;5.63;3.70;;;;;;;9.07;100.00;99368.63;1452139;90;21641;-86
2023/11/15 06:07:25;;;;;;;11.13;4.53;;;;;;;9.03;100.00;99376.87;1445677;90;21360;-83
2023/11/15 06:09:52;;;;;;;7.57;3.50;;;;;;;9.04;100.00;99368.45;1442757;90;21526;-85
2023/11/15 06:12:19;;;;;;;10.57;4.50;;;;;;;9.06;100.00;99370.91;1454518;90;22285;-84
2023/11/15 06:14:47;;;;;;;5.80;4.20;;;;;;;9.06;100.00;99355.89;1443272;90;21596;-85
2023/11/15 06:17:13;;;;;;;9.13;4.90;;;;;;;9.05;100.00;99358.21;1450295;89;22241;-85
2023/11/15 06:19:41;;;;;;;10.73;5.40;;;;;;;9.03;100.00;99360.19;1443780;90;21457;-83
2023/11/15 06:22:07;;;;;;;10.17;5.10;;;;;;;9.07;100.00;99356.74;1449655;90;22453;-85
2023/11/15 06:24:34;;;;;;;14.30;5.20;;;;;;;9.09;100.00;99363.52;1444973;89;21450;-83
2023/11/15 06:27:00;;;;;;;9.13;4.93;;;;;;;9.09;100.00;99369.27;1451700;90;21412;-82
2023/11/15 06:29:27;;;;;;;9.07;4.57;;;;;;;9.11;100.00;99363.33;1453470;90;21339;-84
2023/11/15 06:31:54;;;;;;;10.77;5.17;;;;;;;9.13;100.00;99363.50;1436654;90;22262;-83
2023/11/15 06:34:20;;;;;;;7.97;5.03;;;;;;;9.13;100.00;99366.14;1453021;90;21338;-85
2023/11/15 06:36:47;;;;;;;8.70;4.30;;;;;;;9.16;100.00;99357.08;1459235;90;21538;-82
2023/11/15 06:39:13;;;;;;;11.43;5.37;;;;;;;9.19;100.00;99359.38;1447283;90;22708;-82
2023/11/15 06:41:40;;;;;;;12.53;5.60;;;;;;;9.21;100.00;99363.52;1452314;89;21434;-81
2023/11/15 06:44:07;;;;;;;11.20;4.17;;;;;;;9.25;100.00;99365.31;1452204;89;21339;-82
2023/11/15 06:46:38;;;;;;;7.57;4.57;;;;;;;9.26;100.00;99374.41;1456461;90;21504;-82
2023/11/15 06:49:02;;;;;;;7.97;4.07;;;;;;;9.28;100.00;99370.27;1455054;89;22342;-87
2023/11/15 06:51:29;;;;;;;8.07;3.77;;;;;;;9.28;100.00;99366.80;1448025;90;22189;-87
2023/11/15 06:53:56;;;;;;;7.47;4.30;;;;;;;9.25;100.00;99362.67;1453374;90;21710;-83
2023/11/15 06:56:22;;;;;;;9.80;4.97;;;;;;;9.28;100.00;99353.11;1449678;90;21428;-82
2023/11/15 06:58:48;;;;;;;7.53;3.80;;;;;;;9.25;100.00;99346.84;1460186;90;21656;-84
2023/11/15 07:01:14;;;;;;;8.53;3.97;;;;;;;9.24;100.00;99335.45;1442505;89;21420;-83
2023/11/15 07:03:43;;;;;;;5.80;3.17;;;;;;;9.27;100.00;99342.23;1470099;89;22995;-84
2023/11/15 07:06:10;;;;;;;4.57;3.50;;;;;;;9.31;100.00;99335.61;1441411;89;21567;-87
2023/11/15 07:08:37;;;;;;;6.33;3.50;;;;;;;9.33;100.00;99334.95;1456808;89;21411;-84
2023/11/15 07:11:03;;;;;;;7.70;3.70;;;;;;;9.34;100.00;99333.95;1457325;89;21315;-86
2023/11/15 07:13:31;;;;;;;6.30;3.47;;;;;;;9.41;100.00;99341.55;1463927;89;21404;-86
2023/11/15 07:16:01;;;;;;;6.70;4.07;;;;;;;9.43;100.00;99336.09;1461668;89;21553;-84
2023/11/15 07:18:26;;;;;;;6.77;3.77;;;;;;;9.46;100.00;99334.44;1454884;89;22262;-84
2023/11/15 07:20:52;;;;;;;8.77;3.80;;;;;;;9.54;100.00;99346.81;1457087;89;22359;-85
2023/11/15 07:23:18;;;;;;;11.83;5.10;;;;;;;9.59;100.00;99345.83;1454914;89;21331;-83
2023/11/15 07:25:45;;;;;;;5.40;3.27;;;;;;;9.66;100.00;99337.55;1461410;89;21308;-85
2023/11/15 07:28:12;;;;;;;10.63;4.00;;;;;;;9.81;100.00;99331.06;1459655;89;21419;-78
2023/11/15 07:30:38;;;;;;;4.00;2.97;;;;;;;9.92;100.00;99326.23;1439810;89;21419;-82
2023/11/15 07:33:04;;;;;;;6.57;3.60;;;;;;;10.06;100.00;99319.42;1444452;89;22343;-79
2023/11/15 07:35:33;;;;;;;8.90;3.50;;;;;;;10.17;100.00;99323.02;1460018;89;21381;-81
2023/11/15 07:37:59;;;;;;;8.67;4.63;;;;;;;10.27;100.00;99319.36;1388771;89;21397;-81
2023/11/15 07:40:25;;;;;;;4.30;3.00;;;;;;;10.35;100.00;99317.50;1385003;89;21317;-79
2023/11/15 07:42:51;;;;;;;5.33;3.30;;;;;;;10.43;100.00;99309.22;1384583;89;21397;-82
2023/11/15 07:45:18;;;;;;;7.60;3.17;;;;;;;10.46;100.00;99304.90;1385074;89;21265;-80
2023/11/15 07:47:45;;;;;;;7.63;3.63;;;;;;;10.49;100.00;99308.01;1383954;89;21265;-83
2023/11/15 07:50:11;;;;;;;5.43;3.43;;;;;;;10.55;100.00;99310.46;1383190;89;22349;-79
2023/11/15 07:52:38;;;;;;;7.10;3.90;;;;;;;10.54;100.00;99307.00;1372674;90;21235;-78
2023/11/15 07:55:05;;;;;;;8.13;3.73;;;;;;;10.56;100.00;99304.19;1384392;89;21264;-80
2023/11/15 07:57:31;;;;;;;5.80;3.07;;;;;;;10.60;100.00;99306.30;1389068;89;21368;-80
2023/11/15 07:59:58;;;;;;;3.07;2.67;;;;;;;10.64;100.00;99306.76;1473490;89;21315;-82
2023/11/15 08:02:24;;;;;;;4.70;3.20;;;;;;;10.67;100.00;99301.63;1517678;89;21294;-82
2023/11/15 08:04:51;;;;;;;7.40;3.93;;;;;;;10.68;100.00;99305.42;1412354;90;22329;-79
2023/11/15 08:07:18;;;;;;;6.30;2.97;;;;;;;10.74;100.00;99310.02;1378952;90;21199;-83
2023/11/15 08:09:47;;;;;;;6.77;3.73;;;;;;;10.84;100.00;99315.06;1384682;90;21424;-81
2023/11/15 08:12:13;;;;;;;4.33;2.90;;;;;;;10.91;100.00;99317.34;1377102;89;22145;-82
2023/11/15 08:14:39;;;;;;;5.23;3.27;;;;;;;11.00;100.00;99316.78;1379375;89;21399;-79
2023/11/15 08:17:06;;;;;;;4.53;3.10;;;;;;;11.08;100.00;99325.98;1379590;90;21236;-78
2023/11/15 08:19:32;;;;;;;4.97;3.13;;;;;;;11.17;100.00;99314.33;1379309;90;21279;-82
2023/11/15 08:21:58;;;;;;;4.50;2.60;;;;;;;11.24;100.00;99329.81;1385445;90;21288;-80
2023/11/15 08:24:26;;;;;;;3.83;2.83;;;;;;;11.32;100.00;99331.58;1372916;90;21317;-79
2023/11/15 08:26:56;;;;;;;5.60;2.73;;;;;;;11.41;100.00;99336.30;1378069;90;22079;-83
2023/11/15 08:29:22;;;;;;;5.47;3.03;;;;;;;11.42;100.00;99333.48;1378887;90;21413;-80
2023/11/15 08:31:49;;;;;;;4.63;2.43;;;;;;;11.47;100.00;99336.39;1379402;89;21317;-80
2023/11/15 08:34:15;;;;;;;4.77;2.60;;;;;;;11.52;100.00;99328.73;1379228;90;22249;-81
2023/11/15 08:36:43;;;;;;;3.80;2.37;;;;;;;11.61;100.00;99330.80;1379570;90;21251;-84
2023/11/15 08:39:12;;;;;;;4.57;2.37;;;;;;;11.69;100.00;99336.02;1378042;90;22369;-82
2023/11/15 08:41:38;;;;;;;4.33;2.20;;;;;;;11.76;100.00;99338.77;1382723;89;21258;-79
2023/11/15 08:44:05;;;;;;;5.20;1.80;;;;;;;11.82;100.00;99339.86;1378460;90;21481;-82
2023/11/15 08:46:33;;;;;;;4.43;2.43;;;;;;;11.84;100.00;99339.19;1378995;90;21250;-82
2023/11/15 08:49:00;;;;;;;2.97;1.87;;;;;;;11.88;100.00;99337.36;1377809;90;21465;-80
2023/11/15 08:51:29;;;;;;;3.40;1.77;;;;;;;11.98;100.00;99339.73;1378553;89;21317;-79
2023/11/15 08:53:55;;;;;;;2.13;1.57;;;;;;;12.01;100.00;99335.89;1377828;89;22138;-82
2023/11/15 08:56:21;;;;;;;2.13;1.50;;;;;;;12.07;100.00;99341.27;1379165;90;22182;-83
2023/11/15 08:58:47;;;;;;;3.90;1.43;;;;;;;12.13;100.00;99333.91;1379661;90;21380;-84
2023/11/15 09:01:16;;;;;;;4.63;1.57;;;;;;;12.27;100.00;99338.06;1386799;89;21353;-80
2023/11/15 09:03:42;;;;;;;3.47;1.67;;;;;;;12.37;100.00;99337.25;1388041;89;22115;-83
2023/11/15 09:06:11;;;;;;;2.90;1.73;;;;;;;12.48;100.00;99336.78;1383581;89;21206;-81
2023/11/15 09:08:38;;;;;;;4.30;2.57;;;;;;;12.49;100.00;99339.77;1539732;89;21390;-80
2023/11/15 09:11:05;;;;;;;2.70;1.83;;;;;;;12.54;100.00;99358.59;1383163;89;22198;-81
2023/11/15 09:13:33;;;;;;;3.47;1.57;;;;;;;12.64;100.00;99337.89;1383774;89;21257;-82
2023/11/15 09:15:59;;;;;;;2.43;1.70;;;;;;;12.94;100.00;99350.24;1382794;89;22338;-81
2023/11/15 09:18:27;;;;;;;3.03;1.40;;;;;;;13.68;100.00;99346.72;1384479;89;21265;-83
2023/11/15 09:20:53;;;;;;;3.27;2.23;;;;;;;14.49;100.00;99354.63;1370821;90;21346;-82
2023/11/15 09:23:22;;;;;;;4.27;1.50;;;;;;;15.15;100.00;99348.67;1384680;89;21309;-82
2023/11/15 09:25:49;;;;;;;3.40;2.42;;;;;;;15.63;100.00;99357.30;1387338;89;21227;-80
2023/11/15 09:28:18;;;;;;;3.35;2.10;;;;;;;15.97;100.00;99351.44;1383600;89;22280;-81
2023/11/15 09:30:44;;;;;;;2.95;1.47;;;;;;;16.31;100.00;99350.28;1381970;89;21447;-83
2023/11/15 09:33:10;;;;;;;2.17;1.47;;;;;;;16.59;100.00;99348.64;1385087;89;22108;-83
2023/11/15 09:35:38;;;;;;;2.80;1.47;;;;;;;16.87;100.00;99347.50;1384583;89;21280;-84
2023/11/15 09:38:04;;;;;;;2.47;1.72;;;;;;;16.48;100.00;99351.97;1388666;89;21463;-83
2023/11/15 09:40:30;;;;;;;6.55;1.30;;;;;;;16.77;100.00;99351.14;1435132;90;21454;-84
2023/11/15 09:43:01;;;;;;;1.90;1.22;;;;;;;16.98;100.00;99348.16;1384522;89;21250;-81
2023/11/15 09:45:27;;;;;;;3.55;1.35;;;;;;;16.44;100.00;99354.77;1541578;89;21207;-82
2023/11/15 09:47:56;;;;;;;3.75;1.47;;;;;;;16.08;100.00;99350.77;1384100;89;21258;-82
2023/11/15 09:50:26;;;;;;;2.92;1.20;;;;;;;15.55;100.00;99354.84;1387425;89;21442;-82
2023/11/15 09:52:58;;;;;;;1.65;0.75;;;;;;;15.06;100.00;99350.72;1380147;89;21405;-82
2023/11/15 09:55:26;;;;;;;2.60;1.42;;;;;;;14.54;100.00;99355.70;1541559;89;22147;-84
2023/11/15 09:57:54;;;;;;;3.43;1.97;;;;;;;14.29;100.00;99368.66;1383430;89;21258;-81
2023/11/15 10:00:21;;;;;;;4.10;1.97;;;;;;;14.03;100.00;99367.20;1376799;89;22197;-82
2023/11/15 10:02:52;;;;;;;4.30;1.77;;;;;;;14.17;100.00;99361.75;1419144;90;21486;-82
2023/11/15 10:05:28;;;;;;;2.77;1.63;;;;;;;14.73;100.00;99362.13;1494363;89;21345;-84
2023/11/15 10:08:12;;;;;;;1.52;1.07;;;;;;;15.07;100.00;99349.68;1458830;88;21515;-84
2023/11/15 10:10:43;;;;;;;3.30;1.32;;;;;;;15.47;100.00;99349.70;1462284;89;21547;-79
2023/11/15 10:13:14;;;;;;;2.72;1.02;;;;;;;15.78;100.00;99352.59;1387794;89;22259;-81
2023/11/15 10:15:46;;;;;;;4.10;0.80;;;;;;;15.81;100.00;99355.88;1381409;89;22221;-80
2023/11/15 10:18:19;;;;;;;3.05;1.15;;;;;;;15.42;100.00;99361.01;1541732;89;21190;-84
2023/11/15 10:20:47;;;;;;;1.82;1.00;;;;;;;15.29;100.00;99344.48;1413103;89;21493;-82
2023/11/15 10:23:17;;;;;;;2.05;1.17;;;;;;;15.58;100.00;99345.09;1389044;89;21474;-80
2023/11/15 10:25:55;;;;;;;3.17;1.12;;;;;;;15.70;100.00;99347.46;1534432;89;22233;-82
2023/11/15 10:28:21;;;;;;;1.30;0.82;;;;;;;15.91;100.00;99350.91;1541588;89;21214;-82
2023/11/15 10:31:06;;;;;;;3.02;0.80;;;;;;;15.77;100.00;99357.62;1383956;89;21221;-83
2023/11/15 10:33:37;;;;;;;2.67;0.98;;;;;;;15.82;100.00;99362.32;1540101;89;21332;-84
2023/11/15 10:36:18;;;;;;;4.33;1.10;;;;;;;15.92;100.00;99363.25;1368130;92;21517;-85
2023/11/15 10:38:55;;;;;;;1.15;0.80;;;;;;;16.04;100.00;99369.58;1541710;89;22070;-85
2023/11/15 10:41:24;;;;;;;3.67;1.00;;;;;;;15.95;100.00;99369.50;1395091;89;21516;-85
2023/11/15 10:43:56;;;;;;;2.52;1.02;;;;;;;16.15;100.00;99370.27;1383415;89;21243;-84
2023/11/15 10:46:30;;;;;;;2.05;0.93;;;;;;;16.11;100.00;99365.06;1541549;89;21199;-83
2023/11/15 10:48:59;;;;;;;3.33;1.05;;;;;;;16.38;100.00;99362.30;1382874;89;21205;-85
2023/11/15 10:51:41;;;;;;;5.35;1.17;;;;;;;16.33;100.00;99343.41;1381698;89;21257;-86
2023/11/15 10:54:11;;;;;;;4.65;1.05;;;;;;;16.27;100.00;99367.77;1536075;89;22101;-85
2023/11/15 10:56:39;;;;;;;3.80;1.50;;;;;;;15.88;100.00;99367.34;1490425;89;22351;-81
2023/11/15 10:59:06;;;;;;;2.12;0.90;;;;;;;15.61;100.00;99383.86;1381972;89;21420;-82
2023/11/15 11:01:34;;;;;;;2.90;1.30;;;;;;;15.22;100.00;99382.31;1393073;89;22454;-81
2023/11/15 11:04:08;;;;;;;4.62;1.50;;;;;;;15.04;100.00;99397.53;1448649;90;21530;-84
2023/11/15 11:07:07;;;;;;;2.15;1.00;;;;;;;14.88;100.00;99397.41;1451090;89;21442;-85
2023/11/15 11:09:52;;;;;;;4.20;1.10;;;;;;;14.63;100.00;99393.63;1453016;89;21353;-82
2023/11/15 11:12:22;;;;;;;1.73;1.10;;;;;;;14.37;100.00;99401.77;1461444;89;21420;-83
2023/11/15 11:15:18;;;;;;;1.47;0.87;;;;;;;14.11;100.00;99410.95;1437464;90;22528;-81
2023/11/15 11:17:47;;;;;;;2.10;1.33;;;;;;;13.95;100.00;99412.90;1449830;90;21443;-80
2023/11/15 11:20:28;;;;;;;1.90;1.20;;;;;;;13.76;100.00;99400.27;1446413;90;21471;-82
2023/11/15 11:23:17;;;;;;;2.10;1.23;;;;;;;13.66;100.00;99405.09;1455525;89;21405;-80
2023/11/15 11:25:46;;;;;;;2.83;1.30;;;;;;;13.59;100.00;99401.57;1459900;89;22262;-81
2023/11/15 11:28:13;;;;;;;1.93;1.33;;;;;;;13.55;100.00;99402.44;1454113;89;22211;-83
2023/11/15 11:30:43;;;;;;;3.07;1.57;;;;;;;13.45;100.00;99409.93;1462756;89;21463;-81